sensor_id;sensor_type;location;lat;lon;timestamp;P1;durP1;ratioP1;P2;durP2;ratioP2
49175;SDS011;35012;47.200;9.748;2023-06-14T00:00:39;4.80;;;3.43;;
49175;SDS011;35012;47.200;9.748;2023-06-14T00:03:08;3.50;;;3.17;;
49175;SDS011;35012;47.200;9.748;2023-06-14T00:05:38;6.47;;;3.17;;
49175;SDS011;35012;47.200;9.748;2023-06-14T00:08:07;3.97;;;3.03;;
49175;SDS011;35012;47.200;9.748;2023-06-14T00:10:34;5.77;;;3.13;;
49175;SDS011;35012;47.200;9.748;2023-06-14T00:13:01;6.90;;;2.97;;
49175;SDS011;35012;47.200;9.748;2023-06-14T00:15:27;4.00;;;3.17;;
49175;SDS011;35012;47.200;9.748;2023-06-14T00:17:53;5.70;;;3.63;;
49175;SDS011;35012;47.200;9.748;2023-06-14T00:20:20;5.13;;;3.77;;
49175;SDS011;35012;47.200;9.748;2023-06-14T00:22:46;4.43;;;3.50;;
49175;SDS011;35012;47.200;9.748;2023-06-14T00:25:11;7.10;;;3.73;;
49175;SDS011;35012;47.200;9.748;2023-06-14T00:27:37;4.67;;;3.43;;
49175;SDS011;35012;47.200;9.748;2023-06-14T00:30:03;3.87;;;3.47;;
49175;SDS011;35012;47.200;9.748;2023-06-14T00:32:28;3.80;;;3.43;;
49175;SDS011;35012;47.200;9.748;2023-06-14T00:34:54;5.83;;;3.57;;
49175;SDS011;35012;47.200;9.748;2023-06-14T00:37:20;5.43;;;3.00;;
49175;SDS011;35012;47.200;9.748;2023-06-14T00:39:45;4.03;;;3.23;;
49175;SDS011;35012;47.200;9.748;2023-06-14T00:42:11;6.30;;;3.27;;
49175;SDS011;35012;47.200;9.748;2023-06-14T00:44:36;4.53;;;2.97;;
49175;SDS011;35012;47.200;9.748;2023-06-14T00:47:02;5.87;;;3.37;;
49175;SDS011;35012;47.200;9.748;2023-06-14T00:49:28;5.00;;;3.50;;
49175;SDS011;35012;47.200;9.748;2023-06-14T00:51:54;4.10;;;3.23;;
49175;SDS011;35012;47.200;9.748;2023-06-14T00:54:20;6.53;;;3.47;;
49175;SDS011;35012;47.200;9.748;2023-06-14T00:56:45;6.47;;;3.20;;
49175;SDS011;35012;47.200;9.748;2023-06-14T00:59:11;3.87;;;3.00;;
49175;SDS011;35012;47.200;9.748;2023-06-14T01:01:36;3.97;;;3.53;;
49175;SDS011;35012;47.200;9.748;2023-06-14T01:04:03;5.63;;;3.23;;
49175;SDS011;35012;47.200;9.748;2023-06-14T01:09:19;5.47;;;3.33;;
49175;SDS011;35012;47.200;9.748;2023-06-14T01:12:19;6.20;;;3.57;;
49175;SDS011;35012;47.200;9.748;2023-06-14T01:14:49;3.90;;;3.50;;
49175;SDS011;35012;47.200;9.748;2023-06-14T01:17:16;5.33;;;3.47;;
49175;SDS011;35012;47.200;9.748;2023-06-14T01:19:42;6.03;;;3.90;;
49175;SDS011;35012;47.200;9.748;2023-06-14T01:22:09;5.30;;;3.27;;
49175;SDS011;35012;47.200;9.748;2023-06-14T01:24:35;4.63;;;3.50;;
49175;SDS011;35012;47.200;9.748;2023-06-14T01:27:00;4.03;;;3.40;;
49175;SDS011;35012;47.200;9.748;2023-06-14T01:29:27;4.17;;;3.37;;
49175;SDS011;35012;47.200;9.748;2023-06-14T01:31:57;4.23;;;3.57;;
49175;SDS011;35012;47.200;9.748;2023-06-14T01:34:23;12.03;;;3.97;;
49175;SDS011;35012;47.200;9.748;2023-06-14T01:36:48;3.60;;;3.30;;
49175;SDS011;35012;47.200;9.748;2023-06-14T01:39:15;4.40;;;3.50;;
49175;SDS011;35012;47.200;9.748;2023-06-14T01:41:41;4.33;;;3.40;;
49175;SDS011;35012;47.200;9.748;2023-06-14T01:44:07;4.57;;;3.47;;
49175;SDS011;35012;47.200;9.748;2023-06-14T01:46:33;4.50;;;3.33;;
49175;SDS011;35012;47.200;9.748;2023-06-14T01:48:59;6.07;;;3.37;;
49175;SDS011;35012;47.200;9.748;2023-06-14T01:51:24;4.23;;;3.50;;
49175;SDS011;35012;47.200;9.748;2023-06-14T01:53:50;4.63;;;3.23;;
49175;SDS011;35012;47.200;9.748;2023-06-14T01:56:15;5.80;;;3.27;;
49175;SDS011;35012;47.200;9.748;2023-06-14T01:58:41;5.47;;;3.73;;
49175;SDS011;35012;47.200;9.748;2023-06-14T02:01:06;4.33;;;3.20;;
49175;SDS011;35012;47.200;9.748;2023-06-14T02:03:33;5.60;;;3.30;;
49175;SDS011;35012;47.200;9.748;2023-06-14T02:05:59;7.43;;;3.37;;
49175;SDS011;35012;47.200;9.748;2023-06-14T02:08:25;5.13;;;3.40;;
49175;SDS011;35012;47.200;9.748;2023-06-14T02:10:50;4.40;;;3.30;;
49175;SDS011;35012;47.200;9.748;2023-06-14T02:13:16;3.97;;;3.23;;
49175;SDS011;35012;47.200;9.748;2023-06-14T02:15:42;4.33;;;3.73;;
49175;SDS011;35012;47.200;9.748;2023-06-14T02:18:08;6.53;;;3.50;;
49175;SDS011;35012;47.200;9.748;2023-06-14T02:20:35;5.17;;;3.43;;
49175;SDS011;35012;47.200;9.748;2023-06-14T02:23:01;3.87;;;3.47;;
49175;SDS011;35012;47.200;9.748;2023-06-14T02:25:26;4.30;;;3.63;;
49175;SDS011;35012;47.200;9.748;2023-06-14T02:27:55;8.13;;;3.67;;
49175;SDS011;35012;47.200;9.748;2023-06-14T02:30:21;3.60;;;3.10;;
49175;SDS011;35012;47.200;9.748;2023-06-14T02:32:47;4.10;;;3.30;;
49175;SDS011;35012;47.200;9.748;2023-06-14T02:35:13;5.73;;;3.70;;
49175;SDS011;35012;47.200;9.748;2023-06-14T02:37:39;5.37;;;3.70;;
49175;SDS011;35012;47.200;9.748;2023-06-14T02:40:05;4.20;;;3.70;;
49175;SDS011;35012;47.200;9.748;2023-06-14T02:42:31;6.13;;;3.40;;
49175;SDS011;35012;47.200;9.748;2023-06-14T02:44:57;4.23;;;3.50;;
49175;SDS011;35012;47.200;9.748;2023-06-14T02:47:22;4.67;;;3.60;;
49175;SDS011;35012;47.200;9.748;2023-06-14T02:49:49;5.97;;;3.97;;
49175;SDS011;35012;47.200;9.748;2023-06-14T02:52:15;4.10;;;3.77;;
49175;SDS011;35012;47.200;9.748;2023-06-14T02:54:41;6.00;;;3.80;;
49175;SDS011;35012;47.200;9.748;2023-06-14T02:57:06;4.23;;;3.80;;
49175;SDS011;35012;47.200;9.748;2023-06-14T02:59:32;5.00;;;4.00;;
49175;SDS011;35012;47.200;9.748;2023-06-14T03:01:58;7.97;;;4.07;;
49175;SDS011;35012;47.200;9.748;2023-06-14T03:04:24;3.50;;;3.20;;
49175;SDS011;35012;47.200;9.748;2023-06-14T03:06:51;4.13;;;3.63;;
49175;SDS011;35012;47.200;9.748;2023-06-14T03:09:19;4.63;;;3.70;;
49175;SDS011;35012;47.200;9.748;2023-06-14T03:11:45;5.37;;;3.73;;
49175;SDS011;35012;47.200;9.748;2023-06-14T03:14:10;4.40;;;3.60;;
49175;SDS011;35012;47.200;9.748;2023-06-14T03:16:38;4.20;;;3.80;;
49175;SDS011;35012;47.200;9.748;2023-06-14T03:19:04;4.43;;;3.60;;
49175;SDS011;35012;47.200;9.748;2023-06-14T03:21:29;4.83;;;3.80;;
49175;SDS011;35012;47.200;9.748;2023-06-14T03:23:55;4.63;;;3.97;;
49175;SDS011;35012;47.200;9.748;2023-06-14T03:26:20;4.23;;;3.80;;
49175;SDS011;35012;47.200;9.748;2023-06-14T03:28:47;4.27;;;3.87;;
49175;SDS011;35012;47.200;9.748;2023-06-14T03:31:16;6.37;;;3.93;;
49175;SDS011;35012;47.200;9.748;2023-06-14T03:33:41;5.23;;;3.50;;
49175;SDS011;35012;47.200;9.748;2023-06-14T03:36:07;5.23;;;3.53;;
49175;SDS011;35012;47.200;9.748;2023-06-14T03:38:32;4.07;;;3.67;;
49175;SDS011;35012;47.200;9.748;2023-06-14T03:40:58;4.37;;;3.63;;
49175;SDS011;35012;47.200;9.748;2023-06-14T03:43:24;4.67;;;4.07;;
49175;SDS011;35012;47.200;9.748;2023-06-14T03:45:50;4.60;;;3.70;;
49175;SDS011;35012;47.200;9.748;2023-06-14T03:48:15;8.77;;;4.23;;
49175;SDS011;35012;47.200;9.748;2023-06-14T03:50:41;6.80;;;4.40;;
49175;SDS011;35012;47.200;9.748;2023-06-14T03:53:08;5.00;;;4.47;;
49175;SDS011;35012;47.200;9.748;2023-06-14T03:55:33;5.37;;;4.20;;
49175;SDS011;35012;47.200;9.748;2023-06-14T03:58:00;5.53;;;4.53;;
49175;SDS011;35012;47.200;9.748;2023-06-14T04:00:25;5.67;;;4.00;;
49175;SDS011;35012;47.200;9.748;2023-06-14T04:02:51;8.57;;;4.30;;
49175;SDS011;35012;47.200;9.748;2023-06-14T04:05:18;5.03;;;4.50;;
49175;SDS011;35012;47.200;9.748;2023-06-14T04:07:44;4.93;;;4.10;;
49175;SDS011;35012;47.200;9.748;2023-06-14T04:10:14;7.53;;;4.40;;
49175;SDS011;35012;47.200;9.748;2023-06-14T04:12:40;5.80;;;4.43;;
49175;SDS011;35012;47.200;9.748;2023-06-14T04:15:05;5.43;;;3.93;;
49175;SDS011;35012;47.200;9.748;2023-06-14T04:17:33;5.80;;;4.20;;
49175;SDS011;35012;47.200;9.748;2023-06-14T04:19:59;6.87;;;4.13;;
49175;SDS011;35012;47.200;9.748;2023-06-14T04:22:25;5.03;;;4.53;;
49175;SDS011;35012;47.200;9.748;2023-06-14T04:24:53;5.90;;;4.17;;
49175;SDS011;35012;47.200;9.748;2023-06-14T04:27:21;5.60;;;4.30;;
49175;SDS011;35012;47.200;9.748;2023-06-14T04:29:54;5.33;;;4.00;;
49175;SDS011;35012;47.200;9.748;2023-06-14T04:32:24;5.10;;;3.80;;
49175;SDS011;35012;47.200;9.748;2023-06-14T04:34:52;6.63;;;4.47;;
49175;SDS011;35012;47.200;9.748;2023-06-14T04:37:19;5.20;;;3.97;;
49175;SDS011;35012;47.200;9.748;2023-06-14T04:39:46;6.37;;;3.83;;
49175;SDS011;35012;47.200;9.748;2023-06-14T04:42:12;7.00;;;4.27;;
49175;SDS011;35012;47.200;9.748;2023-06-14T04:44:42;5.33;;;3.80;;
49175;SDS011;35012;47.200;9.748;2023-06-14T04:47:09;4.17;;;3.77;;
49175;SDS011;35012;47.200;9.748;2023-06-14T04:49:36;4.47;;;3.73;;
49175;SDS011;35012;47.200;9.748;2023-06-14T04:52:01;4.20;;;3.80;;
49175;SDS011;35012;47.200;9.748;2023-06-14T04:54:27;6.90;;;4.23;;
49175;SDS011;35012;47.200;9.748;2023-06-14T04:56:53;5.33;;;4.30;;
49175;SDS011;35012;47.200;9.748;2023-06-14T04:59:20;5.70;;;4.23;;
49175;SDS011;35012;47.200;9.748;2023-06-14T05:01:48;5.33;;;4.17;;
49175;SDS011;35012;47.200;9.748;2023-06-14T05:04:17;4.97;;;4.17;;
49175;SDS011;35012;47.200;9.748;2023-06-14T05:06:43;4.40;;;4.00;;
49175;SDS011;35012;47.200;9.748;2023-06-14T05:09:15;5.60;;;3.83;;
49175;SDS011;35012;47.200;9.748;2023-06-14T05:11:42;4.73;;;4.00;;
49175;SDS011;35012;47.200;9.748;2023-06-14T05:14:09;6.67;;;4.03;;
49175;SDS011;35012;47.200;9.748;2023-06-14T05:16:35;7.93;;;4.20;;
49175;SDS011;35012;47.200;9.748;2023-06-14T05:19:00;7.67;;;4.80;;
49175;SDS011;35012;47.200;9.748;2023-06-14T05:21:26;7.83;;;5.40;;
49175;SDS011;35012;47.200;9.748;2023-06-14T05:23:51;7.07;;;5.07;;
49175;SDS011;35012;47.200;9.748;2023-06-14T05:26:18;9.67;;;5.23;;
49175;SDS011;35012;47.200;9.748;2023-06-14T05:28:44;6.17;;;4.97;;
49175;SDS011;35012;47.200;9.748;2023-06-14T05:31:10;6.97;;;4.70;;
49175;SDS011;35012;47.200;9.748;2023-06-14T05:33:35;6.90;;;4.87;;
49175;SDS011;35012;47.200;9.748;2023-06-14T05:36:01;5.90;;;4.60;;
49175;SDS011;35012;47.200;9.748;2023-06-14T05:38:27;5.80;;;4.90;;
49175;SDS011;35012;47.200;9.748;2023-06-14T05:40:52;7.83;;;5.20;;
49175;SDS011;35012;47.200;9.748;2023-06-14T05:43:19;7.87;;;5.37;;
49175;SDS011;35012;47.200;9.748;2023-06-14T05:45:44;5.87;;;5.17;;
49175;SDS011;35012;47.200;9.748;2023-06-14T05:48:10;7.73;;;5.63;;
49175;SDS011;35012;47.200;9.748;2023-06-14T05:50:36;7.13;;;5.47;;
49175;SDS011;35012;47.200;9.748;2023-06-14T05:53:02;6.57;;;4.80;;
49175;SDS011;35012;47.200;9.748;2023-06-14T05:55:27;5.30;;;4.80;;
49175;SDS011;35012;47.200;9.748;2023-06-14T05:57:53;7.30;;;5.17;;
49175;SDS011;35012;47.200;9.748;2023-06-14T06:00:18;5.73;;;5.10;;
49175;SDS011;35012;47.200;9.748;2023-06-14T06:02:45;8.53;;;5.47;;
49175;SDS011;35012;47.200;9.748;2023-06-14T06:05:14;6.27;;;5.23;;
49175;SDS011;35012;47.200;9.748;2023-06-14T06:07:40;6.40;;;5.00;;
49175;SDS011;35012;47.200;9.748;2023-06-14T06:10:06;5.57;;;4.87;;
49175;SDS011;35012;47.200;9.748;2023-06-14T06:12:32;7.77;;;4.83;;
49175;SDS011;35012;47.200;9.748;2023-06-14T06:14:58;7.33;;;5.20;;
49175;SDS011;35012;47.200;9.748;2023-06-14T06:17:24;5.70;;;4.93;;
49175;SDS011;35012;47.200;9.748;2023-06-14T06:19:51;6.73;;;5.07;;
49175;SDS011;35012;47.200;9.748;2023-06-14T06:22:16;6.33;;;5.00;;
49175;SDS011;35012;47.200;9.748;2023-06-14T06:24:42;5.33;;;4.83;;
49175;SDS011;35012;47.200;9.748;2023-06-14T06:27:07;6.97;;;4.70;;
49175;SDS011;35012;47.200;9.748;2023-06-14T06:29:33;6.83;;;4.70;;
49175;SDS011;35012;47.200;9.748;2023-06-14T06:32:00;9.83;;;5.17;;
49175;SDS011;35012;47.200;9.748;2023-06-14T06:34:26;7.57;;;4.97;;
49175;SDS011;35012;47.200;9.748;2023-06-14T06:36:51;6.80;;;4.70;;
49175;SDS011;35012;47.200;9.748;2023-06-14T06:39:17;5.93;;;5.07;;
49175;SDS011;35012;47.200;9.748;2023-06-14T06:41:42;7.63;;;4.87;;
49175;SDS011;35012;47.200;9.748;2023-06-14T06:44:08;7.27;;;4.83;;
49175;SDS011;35012;47.200;9.748;2023-06-14T06:46:35;5.70;;;4.70;;
49175;SDS011;35012;47.200;9.748;2023-06-14T06:49:05;5.00;;;4.47;;
49175;SDS011;35012;47.200;9.748;2023-06-14T06:51:31;5.90;;;4.60;;
49175;SDS011;35012;47.200;9.748;2023-06-14T06:53:57;5.93;;;4.23;;
49175;SDS011;35012;47.200;9.748;2023-06-14T06:56:23;5.93;;;4.47;;
49175;SDS011;35012;47.200;9.748;2023-06-14T06:58:52;6.07;;;4.60;;
49175;SDS011;35012;47.200;9.748;2023-06-14T07:01:17;5.73;;;4.20;;
49175;SDS011;35012;47.200;9.748;2023-06-14T07:03:44;6.90;;;4.30;;
49175;SDS011;35012;47.200;9.748;2023-06-14T07:06:11;9.27;;;4.50;;
49175;SDS011;35012;47.200;9.748;2023-06-14T07:08:37;5.50;;;4.07;;
49175;SDS011;35012;47.200;9.748;2023-06-14T07:11:03;5.17;;;4.00;;
49175;SDS011;35012;47.200;9.748;2023-06-14T07:13:30;6.73;;;4.40;;
49175;SDS011;35012;47.200;9.748;2023-06-14T07:15:59;5.23;;;3.90;;
49175;SDS011;35012;47.200;9.748;2023-06-14T07:18:28;6.33;;;3.80;;
49175;SDS011;35012;47.200;9.748;2023-06-14T07:20:53;6.90;;;4.13;;
49175;SDS011;35012;47.200;9.748;2023-06-14T07:23:22;8.53;;;4.47;;
49175;SDS011;35012;47.200;9.748;2023-06-14T07:25:48;6.90;;;3.80;;
49175;SDS011;35012;47.200;9.748;2023-06-14T07:28:14;9.27;;;4.10;;
49175;SDS011;35012;47.200;9.748;2023-06-14T07:30:39;4.60;;;3.83;;
49175;SDS011;35012;47.200;9.748;2023-06-14T07:33:05;7.70;;;4.10;;
49175;SDS011;35012;47.200;9.748;2023-06-14T07:35:31;5.00;;;4.10;;
49175;SDS011;35012;47.200;9.748;2023-06-14T07:37:56;4.40;;;3.80;;
49175;SDS011;35012;47.200;9.748;2023-06-14T07:40:22;5.03;;;3.90;;
49175;SDS011;35012;47.200;9.748;2023-06-14T07:42:47;5.57;;;3.90;;
49175;SDS011;35012;47.200;9.748;2023-06-14T07:45:14;4.80;;;3.97;;
49175;SDS011;35012;47.200;9.748;2023-06-14T07:47:41;4.57;;;3.60;;
49175;SDS011;35012;47.200;9.748;2023-06-14T07:50:10;4.57;;;3.87;;
49175;SDS011;35012;47.200;9.748;2023-06-14T07:52:36;4.90;;;3.60;;
49175;SDS011;35012;47.200;9.748;2023-06-14T07:55:02;4.63;;;3.47;;
49175;SDS011;35012;47.200;9.748;2023-06-14T07:57:28;4.57;;;3.23;;
49175;SDS011;35012;47.200;9.748;2023-06-14T07:59:53;4.53;;;3.07;;
49175;SDS011;35012;47.200;9.748;2023-06-14T08:02:19;4.57;;;3.60;;
49175;SDS011;35012;47.200;9.748;2023-06-14T08:04:44;6.03;;;3.60;;
49175;SDS011;35012;47.200;9.748;2023-06-14T08:07:10;6.20;;;3.50;;
49175;SDS011;35012;47.200;9.748;2023-06-14T08:09:36;6.33;;;3.60;;
49175;SDS011;35012;47.200;9.748;2023-06-14T08:12:07;7.83;;;3.97;;
49175;SDS011;35012;47.200;9.748;2023-06-14T08:14:35;8.13;;;3.87;;
49175;SDS011;35012;47.200;9.748;2023-06-14T08:17:00;4.13;;;3.73;;
49175;SDS011;35012;47.200;9.748;2023-06-14T08:19:26;5.07;;;3.90;;
49175;SDS011;35012;47.200;9.748;2023-06-14T08:21:51;4.47;;;3.70;;
49175;SDS011;35012;47.200;9.748;2023-06-14T08:24:20;4.73;;;3.70;;
49175;SDS011;35012;47.200;9.748;2023-06-14T08:26:49;5.57;;;3.80;;
49175;SDS011;35012;47.200;9.748;2023-06-14T08:29:15;7.30;;;3.67;;
49175;SDS011;35012;47.200;9.748;2023-06-14T08:31:40;7.30;;;4.10;;
49175;SDS011;35012;47.200;9.748;2023-06-14T08:34:06;5.20;;;3.80;;
49175;SDS011;35012;47.200;9.748;2023-06-14T08:36:31;3.90;;;3.30;;
49175;SDS011;35012;47.200;9.748;2023-06-14T08:38:57;6.90;;;3.53;;
49175;SDS011;35012;47.200;9.748;2023-06-14T08:41:22;4.90;;;3.83;;
49175;SDS011;35012;47.200;9.748;2023-06-14T08:43:50;5.33;;;3.37;;
49175;SDS011;35012;47.200;9.748;2023-06-14T08:46:16;6.10;;;3.40;;
49175;SDS011;35012;47.200;9.748;2023-06-14T08:48:44;4.40;;;3.40;;
49175;SDS011;35012;47.200;9.748;2023-06-14T08:51:11;4.40;;;3.80;;
49175;SDS011;35012;47.200;9.748;2023-06-14T08:53:38;7.47;;;3.60;;
49175;SDS011;35012;47.200;9.748;2023-06-14T08:56:07;5.17;;;3.50;;
49175;SDS011;35012;47.200;9.748;2023-06-14T08:58:47;6.80;;;3.27;;
49175;SDS011;35012;47.200;9.748;2023-06-14T09:01:14;5.10;;;3.67;;
49175;SDS011;35012;47.200;9.748;2023-06-14T09:03:42;7.33;;;3.40;;
49175;SDS011;35012;47.200;9.748;2023-06-14T09:06:08;5.53;;;3.47;;
49175;SDS011;35012;47.200;9.748;2023-06-14T09:08:45;5.10;;;3.50;;
49175;SDS011;35012;47.200;9.748;2023-06-14T09:11:16;5.17;;;3.73;;
49175;SDS011;35012;47.200;9.748;2023-06-14T09:13:44;4.90;;;3.80;;
49175;SDS011;35012;47.200;9.748;2023-06-14T09:16:10;6.50;;;3.87;;
49175;SDS011;35012;47.200;9.748;2023-06-14T09:18:36;4.40;;;3.77;;
49175;SDS011;35012;47.200;9.748;2023-06-14T09:21:15;4.90;;;3.90;;
49175;SDS011;35012;47.200;9.748;2023-06-14T09:23:41;3.97;;;3.57;;
49175;SDS011;35012;47.200;9.748;2023-06-14T09:26:11;6.73;;;3.53;;
49175;SDS011;35012;47.200;9.748;2023-06-14T09:28:41;4.30;;;3.90;;
49175;SDS011;35012;47.200;9.748;2023-06-14T09:31:10;5.80;;;3.33;;
49175;SDS011;35012;47.200;9.748;2023-06-14T09:33:36;3.47;;;3.03;;
49175;SDS011;35012;47.200;9.748;2023-06-14T09:36:01;5.80;;;3.73;;
49175;SDS011;35012;47.200;9.748;2023-06-14T09:38:27;5.13;;;3.33;;
49175;SDS011;35012;47.200;9.748;2023-06-14T09:40:52;6.30;;;3.30;;
49175;SDS011;35012;47.200;9.748;2023-06-14T09:43:21;6.43;;;3.70;;
49175;SDS011;35012;47.200;9.748;2023-06-14T09:45:47;5.17;;;3.40;;
49175;SDS011;35012;47.200;9.748;2023-06-14T09:48:13;4.63;;;3.10;;
49175;SDS011;35012;47.200;9.748;2023-06-14T09:50:42;3.57;;;3.20;;
49175;SDS011;35012;47.200;9.748;2023-06-14T09:53:11;4.53;;;3.40;;
49175;SDS011;35012;47.200;9.748;2023-06-14T09:55:37;9.40;;;3.33;;
49175;SDS011;35012;47.200;9.748;2023-06-14T09:58:06;5.23;;;2.83;;
49175;SDS011;35012;47.200;9.748;2023-06-14T10:00:32;3.30;;;2.77;;
49175;SDS011;35012;47.200;9.748;2023-06-14T10:03:06;3.57;;;2.90;;
49175;SDS011;35012;47.200;9.748;2023-06-14T10:05:41;4.60;;;3.50;;
49175;SDS011;35012;47.200;9.748;2023-06-14T10:08:08;3.93;;;2.97;;
49175;SDS011;35012;47.200;9.748;2023-06-14T10:10:38;4.97;;;3.50;;
49175;SDS011;35012;47.200;9.748;2023-06-14T10:13:04;5.17;;;3.17;;
49175;SDS011;35012;47.200;9.748;2023-06-14T10:15:34;6.43;;;3.30;;
49175;SDS011;35012;47.200;9.748;2023-06-14T10:23:38;5.00;;;3.23;;
49175;SDS011;35012;47.200;9.748;2023-06-14T10:26:06;7.80;;;3.50;;
49175;SDS011;35012;47.200;9.748;2023-06-14T10:28:32;4.13;;;3.70;;
49175;SDS011;35012;47.200;9.748;2023-06-14T10:33:50;3.90;;;3.20;;
49175;SDS011;35012;47.200;9.748;2023-06-14T10:36:28;4.57;;;3.30;;
49175;SDS011;35012;47.200;9.748;2023-06-14T10:38:59;4.88;;;3.50;;
49175;SDS011;35012;47.200;9.748;2023-06-14T10:41:35;7.05;;;3.70;;
49175;SDS011;35012;47.200;9.748;2023-06-14T10:46:56;7.07;;;3.67;;
49175;SDS011;35012;47.200;9.748;2023-06-14T10:52:09;5.15;;;3.35;;
49175;SDS011;35012;47.200;9.748;2023-06-14T10:57:40;4.32;;;3.60;;
49175;SDS011;35012;47.200;9.748;2023-06-14T11:00:07;4.32;;;3.33;;
49175;SDS011;35012;47.200;9.748;2023-06-14T11:05:16;6.22;;;3.72;;
49175;SDS011;35012;47.200;9.748;2023-06-14T11:10:36;6.28;;;3.70;;
49175;SDS011;35012;47.200;9.748;2023-06-14T11:13:05;3.47;;;3.17;;
49175;SDS011;35012;47.200;9.748;2023-06-14T11:15:32;5.55;;;3.53;;
49175;SDS011;35012;47.200;9.748;2023-06-14T11:18:02;5.22;;;3.47;;
49175;SDS011;35012;47.200;9.748;2023-06-14T11:20:33;4.03;;;3.63;;
49175;SDS011;35012;47.200;9.748;2023-06-14T11:23:00;3.92;;;3.53;;
49175;SDS011;35012;47.200;9.748;2023-06-14T11:25:26;4.03;;;3.28;;
49175;SDS011;35012;47.200;9.748;2023-06-14T11:27:55;4.80;;;3.30;;
49175;SDS011;35012;47.200;9.748;2023-06-14T11:30:21;4.03;;;3.60;;
49175;SDS011;35012;47.200;9.748;2023-06-14T11:32:47;4.35;;;3.58;;
49175;SDS011;35012;47.200;9.748;2023-06-14T11:35:15;5.90;;;3.50;;
49175;SDS011;35012;47.200;9.748;2023-06-14T11:37:41;5.13;;;3.10;;
49175;SDS011;35012;47.200;9.748;2023-06-14T11:40:07;3.85;;;3.50;;
49175;SDS011;35012;47.200;9.748;2023-06-14T11:42:35;5.00;;;3.58;;
49175;SDS011;35012;47.200;9.748;2023-06-14T11:45:01;7.25;;;3.65;;
49175;SDS011;35012;47.200;9.748;2023-06-14T11:47:34;4.75;;;3.47;;
49175;SDS011;35012;47.200;9.748;2023-06-14T11:50:04;5.40;;;3.30;;
49175;SDS011;35012;47.200;9.748;2023-06-14T11:52:31;4.72;;;3.28;;
49175;SDS011;35012;47.200;9.748;2023-06-14T11:54:57;5.95;;;3.67;;
49175;SDS011;35012;47.200;9.748;2023-06-14T11:57:23;3.80;;;3.30;;
49175;SDS011;35012;47.200;9.748;2023-06-14T11:59:49;3.35;;;2.85;;
49175;SDS011;35012;47.200;9.748;2023-06-14T12:02:15;3.67;;;3.33;;
49175;SDS011;35012;47.200;9.748;2023-06-14T12:04:42;6.20;;;3.50;;
49175;SDS011;35012;47.200;9.748;2023-06-14T12:07:11;4.20;;;3.40;;
49175;SDS011;35012;47.200;9.748;2023-06-14T12:09:40;3.80;;;3.35;;
49175;SDS011;35012;47.200;9.748;2023-06-14T12:12:24;4.57;;;3.30;;
49175;SDS011;35012;47.200;9.748;2023-06-14T12:14:55;6.03;;;3.35;;
49175;SDS011;35012;47.200;9.748;2023-06-14T12:17:21;3.20;;;2.90;;
49175;SDS011;35012;47.200;9.748;2023-06-14T12:19:48;4.35;;;3.55;;
49175;SDS011;35012;47.200;9.748;2023-06-14T12:22:15;5.35;;;3.78;;
49175;SDS011;35012;47.200;9.748;2023-06-14T12:24:44;6.95;;;3.80;;
49175;SDS011;35012;47.200;9.748;2023-06-14T12:27:10;4.80;;;3.38;;
49175;SDS011;35012;47.200;9.748;2023-06-14T12:29:40;4.70;;;2.95;;
49175;SDS011;35012;47.200;9.748;2023-06-14T12:32:06;5.93;;;3.60;;
49175;SDS011;35012;47.200;9.748;2023-06-14T12:34:32;4.53;;;3.20;;
49175;SDS011;35012;47.200;9.748;2023-06-14T12:36:57;3.70;;;3.40;;
49175;SDS011;35012;47.200;9.748;2023-06-14T12:39:23;4.10;;;3.20;;
49175;SDS011;35012;47.200;9.748;2023-06-14T12:41:49;6.47;;;3.75;;
49175;SDS011;35012;47.200;9.748;2023-06-14T12:44:15;5.40;;;3.38;;
49175;SDS011;35012;47.200;9.748;2023-06-14T12:46:41;5.88;;;3.22;;
49175;SDS011;35012;47.200;9.748;2023-06-14T12:49:08;5.70;;;3.80;;
49175;SDS011;35012;47.200;9.748;2023-06-14T12:51:35;4.50;;;3.53;;
49175;SDS011;35012;47.200;9.748;2023-06-14T12:54:00;5.30;;;3.50;;
49175;SDS011;35012;47.200;9.748;2023-06-14T12:56:26;4.78;;;3.00;;
49175;SDS011;35012;47.200;9.748;2023-06-14T12:58:51;4.80;;;3.67;;
49175;SDS011;35012;47.200;9.748;2023-06-14T13:01:17;4.80;;;3.25;;
49175;SDS011;35012;47.200;9.748;2023-06-14T13:03:43;3.78;;;3.45;;
49175;SDS011;35012;47.200;9.748;2023-06-14T13:06:08;3.92;;;3.38;;
49175;SDS011;35012;47.200;9.748;2023-06-14T13:08:34;3.72;;;3.28;;
49175;SDS011;35012;47.200;9.748;2023-06-14T13:10:59;3.70;;;2.90;;
49175;SDS011;35012;47.200;9.748;2023-06-14T13:13:25;6.20;;;3.17;;
49175;SDS011;35012;47.200;9.748;2023-06-14T13:15:51;5.13;;;3.13;;
49175;SDS011;35012;47.200;9.748;2023-06-14T13:18:17;4.88;;;3.30;;
49175;SDS011;35012;47.200;9.748;2023-06-14T13:20:42;4.82;;;3.38;;
49175;SDS011;35012;47.200;9.748;2023-06-14T13:23:08;4.43;;;3.20;;
49175;SDS011;35012;47.200;9.748;2023-06-14T13:25:34;4.57;;;3.35;;
49175;SDS011;35012;47.200;9.748;2023-06-14T13:28:00;7.93;;;3.42;;
49175;SDS011;35012;47.200;9.748;2023-06-14T13:30:26;4.15;;;3.10;;
49175;SDS011;35012;47.200;9.748;2023-06-14T13:32:51;4.78;;;3.28;;
49175;SDS011;35012;47.200;9.748;2023-06-14T13:35:17;5.22;;;3.00;;
49175;SDS011;35012;47.200;9.748;2023-06-14T13:37:44;4.30;;;3.55;;
49175;SDS011;35012;47.200;9.748;2023-06-14T13:40:09;5.03;;;3.35;;
49175;SDS011;35012;47.200;9.748;2023-06-14T13:42:35;6.43;;;3.10;;
49175;SDS011;35012;47.200;9.748;2023-06-14T13:45:02;3.63;;;3.30;;
49175;SDS011;35012;47.200;9.748;2023-06-14T13:47:28;4.47;;;3.00;;
49175;SDS011;35012;47.200;9.748;2023-06-14T13:49:55;4.72;;;3.08;;
49175;SDS011;35012;47.200;9.748;2023-06-14T13:52:20;4.13;;;2.97;;
49175;SDS011;35012;47.200;9.748;2023-06-14T13:54:46;7.85;;;3.42;;
49175;SDS011;35012;47.200;9.748;2023-06-14T13:57:11;4.40;;;3.10;;
49175;SDS011;35012;47.200;9.748;2023-06-14T13:59:38;3.60;;;3.28;;
49175;SDS011;35012;47.200;9.748;2023-06-14T14:02:04;4.18;;;3.05;;
49175;SDS011;35012;47.200;9.748;2023-06-14T14:04:30;4.75;;;3.15;;
49175;SDS011;35012;47.200;9.748;2023-06-14T14:06:56;3.92;;;3.03;;
49175;SDS011;35012;47.200;9.748;2023-06-14T14:09:22;5.15;;;2.97;;
49175;SDS011;35012;47.200;9.748;2023-06-14T14:11:47;3.95;;;2.85;;
49175;SDS011;35012;47.200;9.748;2023-06-14T14:14:14;5.13;;;3.50;;
49175;SDS011;35012;47.200;9.748;2023-06-14T14:16:39;5.55;;;3.22;;
49175;SDS011;35012;47.200;9.748;2023-06-14T14:19:05;7.45;;;3.50;;
49175;SDS011;35012;47.200;9.748;2023-06-14T14:21:31;4.25;;;3.15;;
49175;SDS011;35012;47.200;9.748;2023-06-14T14:23:57;3.22;;;2.90;;
49175;SDS011;35012;47.200;9.748;2023-06-14T14:26:22;3.80;;;3.40;;
49175;SDS011;35012;47.200;9.748;2023-06-14T14:28:48;6.03;;;3.20;;
49175;SDS011;35012;47.200;9.748;2023-06-14T14:31:14;6.47;;;3.35;;
49175;SDS011;35012;47.200;9.748;2023-06-14T14:33:40;6.55;;;2.97;;
49175;SDS011;35012;47.200;9.748;2023-06-14T14:36:05;5.35;;;3.38;;
49175;SDS011;35012;47.200;9.748;2023-06-14T14:38:32;3.25;;;2.85;;
49175;SDS011;35012;47.200;9.748;2023-06-14T14:40:57;5.32;;;3.10;;
49175;SDS011;35012;47.200;9.748;2023-06-14T14:43:23;5.07;;;3.22;;
49175;SDS011;35012;47.200;9.748;2023-06-14T14:45:48;5.05;;;3.53;;
49175;SDS011;35012;47.200;9.748;2023-06-14T14:48:14;3.70;;;3.20;;
49175;SDS011;35012;47.200;9.748;2023-06-14T14:50:40;4.68;;;3.00;;
49175;SDS011;35012;47.200;9.748;2023-06-14T14:53:05;4.38;;;3.10;;
49175;SDS011;35012;47.200;9.748;2023-06-14T14:55:31;3.53;;;2.78;;
49175;SDS011;35012;47.200;9.748;2023-06-14T14:57:59;5.60;;;3.90;;
49175;SDS011;35012;47.200;9.748;2023-06-14T15:00:25;3.88;;;3.58;;
49175;SDS011;35012;47.200;9.748;2023-06-14T15:02:51;4.90;;;3.95;;
49175;SDS011;35012;47.200;9.748;2023-06-14T15:05:17;6.15;;;3.42;;
49175;SDS011;35012;47.200;9.748;2023-06-14T15:07:42;5.35;;;3.22;;
49175;SDS011;35012;47.200;9.748;2023-06-14T15:10:09;4.57;;;3.50;;